Time;durP1;ratioP1;P1;durP2;ratioP2;P2;SDS_P1;SDS_P2;PMS_P1;PMS_P2;Temp;Humidity;BMP_temperature;BMP_pressure;BME280_temperature;BME280_humidity;BME280_pressure;Samples;Min_cycle;Max_cycle;Signal;HPM_P1;HPM_P2
2022/11/07 00:01:37;;;;;;;3.53;1.10;;;;;;;19.45;49.01;100675.22;5061418;28;20119;-68
2022/11/07 00:04:03;;;;;;;3.78;1.50;;;;;;;19.41;48.81;100679.13;5061494;28;20368;-66
2022/11/07 00:06:28;;;;;;;4.90;1.15;;;;;;;19.44;48.90;100676.22;5061218;28;20036;-68
2022/11/07 00:08:54;;;;;;;3.08;1.25;;;;;;;19.42;48.91;100672.84;5061812;28;20785;-69
2022/11/07 00:11:20;;;;;;;4.78;1.50;;;;;;;19.37;48.76;100675.91;5061634;28;20029;-67
2022/11/07 00:13:45;;;;;;;2.78;1.33;;;;;;;19.37;48.63;100680.34;5061654;28;20384;-68
2022/11/07 00:16:11;;;;;;;2.80;1.10;;;;;;;19.37;48.75;100683.00;5061214;28;20490;-67
2022/11/07 00:18:36;;;;;;;6.35;1.30;;;;;;;19.33;48.78;100681.63;5061461;28;20265;-66
2022/11/07 00:21:06;;;;;;;3.92;1.55;;;;;;;19.35;48.82;100691.06;5061294;28;20521;-67
2022/11/07 00:23:31;;;;;;;2.40;1.30;;;;;;;19.28;48.82;100689.94;5060974;28;20038;-66
2022/11/07 00:26:05;;;;;;;4.30;1.45;;;;;;;19.28;48.95;100687.31;5061330;28;20056;-67
2022/11/07 00:28:37;;;;;;;3.20;1.27;;;;;;;19.29;48.67;100694.25;5061136;28;20476;-65
2022/11/07 00:31:04;;;;;;;2.85;1.30;;;;;;;19.24;48.72;100685.06;5061310;28;20044;-66
2022/11/07 00:33:29;;;;;;;2.17;1.00;;;;;;;19.23;48.90;100684.22;5060987;28;20064;-68
2022/11/07 00:35:55;;;;;;;3.88;1.30;;;;;;;19.24;48.76;100693.00;5061246;28;20141;-67
2022/11/07 00:38:20;;;;;;;4.40;1.40;;;;;;;19.24;48.65;100704.38;5061162;28;20120;-66
2022/11/07 00:41:00;;;;;;;3.25;1.30;;;;;;;19.19;48.72;100688.13;5061492;28;20067;-66
2022/11/07 00:43:26;;;;;;;2.75;1.10;;;;;;;19.22;48.91;100698.41;5061250;28;20035;-67
2022/11/07 00:45:52;;;;;;;3.83;1.15;;;;;;;19.18;48.75;100692.56;5060908;28;20032;-67
2022/11/07 00:48:18;;;;;;;4.22;1.30;;;;;;;19.16;48.77;100698.94;5061258;28;20388;-66
2022/11/07 00:50:43;;;;;;;3.92;1.25;;;;;;;19.18;48.60;100702.28;5060956;28;20115;-67
2022/11/07 00:53:09;;;;;;;3.88;1.23;;;;;;;19.15;48.71;100703.41;5042864;28;20071;-67
2022/11/07 00:55:34;;;;;;;3.22;1.15;;;;;;;19.12;48.81;100710.75;5061248;28;20507;-67
2022/11/07 00:57:59;;;;;;;3.17;1.10;;;;;;;19.13;48.76;100718.53;5060854;28;20024;-67
2022/11/07 01:00:25;;;;;;;3.03;1.30;;;;;;;19.13;48.91;100710.59;5060884;28;20040;-67
2022/11/07 01:05:35;;;;;;;3.43;1.13;;;;;;;19.09;48.93;100706.59;5060754;28;20383;-67
2022/11/07 01:08:00;;;;;;;3.03;1.20;;;;;;;19.09;48.95;100714.50;5061052;28;20520;-68
2022/11/07 01:10:25;;;;;;;3.38;1.10;;;;;;;19.08;48.84;100715.47;5060879;28;20038;-66
2022/11/07 01:12:50;;;;;;;3.10;1.10;;;;;;;19.05;48.86;100712.25;5061013;28;20102;-66
2022/11/07 01:15:16;;;;;;;3.60;1.23;;;;;;;19.07;48.84;100723.53;5060670;28;20056;-66
2022/11/07 01:17:41;;;;;;;3.03;1.25;;;;;;;19.03;48.79;100723.78;5060556;28;20265;-67
2022/11/07 01:20:07;;;;;;;2.88;1.20;;;;;;;19.06;48.68;100733.25;5061088;28;20032;-67
2022/11/07 01:22:32;;;;;;;3.78;1.20;;;;;;;19.05;48.89;100736.84;5060554;28;20032;-67
2022/11/07 01:24:57;;;;;;;4.43;1.55;;;;;;;18.99;48.86;100727.69;5060349;28;20037;-67
2022/11/07 01:27:23;;;;;;;3.33;1.37;;;;;;;18.99;48.96;100735.59;5060769;28;20032;-66
2022/11/07 01:29:48;;;;;;;3.50;1.30;;;;;;;19.00;49.02;100731.97;5060625;28;20356;-66
2022/11/07 01:32:13;;;;;;;3.38;1.02;;;;;;;18.94;48.78;100721.13;5060722;28;20039;-66
2022/11/07 01:34:39;;;;;;;2.78;1.10;;;;;;;18.97;48.79;100740.16;5060512;28;20037;-67
2022/11/07 01:37:04;;;;;;;3.92;1.33;;;;;;;18.99;48.93;100737.38;5064195;28;20048;-66
2022/11/07 01:39:29;;;;;;;2.45;1.10;;;;;;;18.98;48.94;100743.66;5064472;28;20036;-67
2022/11/07 01:41:55;;;;;;;4.55;1.20;;;;;;;18.89;48.88;100725.97;5064333;28;20047;-66
2022/11/07 01:44:20;;;;;;;4.20;1.25;;;;;;;18.97;48.92;100741.97;5064256;28;20781;-68
2022/11/07 01:46:46;;;;;;;3.30;1.10;;;;;;;18.93;48.97;100733.50;5064013;28;20702;-67
2022/11/07 01:49:39;;;;;;;3.10;1.10;;;;;;;18.97;48.88;100736.69;5064234;28;20566;-65
2022/11/07 01:52:10;;;;;;;3.15;1.25;;;;;;;18.94;48.72;100742.25;5063954;28;20029;-66
2022/11/07 01:54:55;;;;;;;3.55;1.20;;;;;;;18.91;49.02;100737.22;5064289;28;20486;-68
2022/11/07 01:57:24;;;;;;;2.53;1.20;;;;;;;18.94;49.03;100740.44;5064019;28;20808;-67
2022/11/07 01:59:53;;;;;;;3.05;1.10;;;;;;;18.92;49.04;100746.81;5064182;28;20441;-67
2022/11/07 02:02:18;;;;;;;3.45;1.10;;;;;;;18.89;48.86;100747.91;5046372;28;20039;-67
2022/11/07 02:04:44;;;;;;;4.00;1.15;;;;;;;18.90;48.91;100739.03;5063322;28;20033;-66
2022/11/07 02:07:19;;;;;;;3.65;1.40;;;;;;;18.92;49.07;100752.09;5064040;28;20475;-65
2022/11/07 02:09:45;;;;;;;4.95;1.73;;;;;;;18.91;48.88;100748.59;5063130;28;20560;-66
2022/11/07 02:12:11;;;;;;;2.67;1.00;;;;;;;18.91;48.92;100745.97;5064009;28;20111;-67
2022/11/07 02:14:36;;;;;;;2.72;1.10;;;;;;;18.90;49.09;100741.69;5064034;28;20067;-68
2022/11/07 02:17:02;;;;;;;4.60;1.33;;;;;;;18.85;49.04;100751.81;5063325;28;20063;-67
2022/11/07 02:19:37;;;;;;;4.93;1.20;;;;;;;18.85;49.05;100742.06;5063841;28;20265;-66
2022/11/07 02:22:15;;;;;;;4.60;1.30;;;;;;;18.88;49.30;100748.88;5063294;28;20028;-67
2022/11/07 02:24:40;;;;;;;2.58;1.00;;;;;;;18.83;49.27;100737.84;5063359;28;20094;-66
2022/11/07 02:27:11;;;;;;;3.40;1.27;;;;;;;18.83;49.16;100740.47;5063622;28;20040;-68
2022/11/07 02:29:38;;;;;;;4.30;1.30;;;;;;;18.83;49.13;100749.25;5063928;28;20473;-67
2022/11/07 02:32:07;;;;;;;2.58;1.20;;;;;;;18.82;49.29;100749.41;5063371;28;20040;-66
2022/11/07 02:34:32;;;;;;;3.78;1.00;;;;;;;18.84;49.13;100745.66;5063238;28;20059;-66
2022/11/07 02:37:00;;;;;;;3.67;1.20;;;;;;;18.85;48.97;100751.81;5063370;28;20472;-66
2022/11/07 02:39:26;;;;;;;3.72;1.23;;;;;;;18.78;48.99;100746.16;5063360;28;20048;-66
2022/11/07 02:41:53;;;;;;;4.65;1.23;;;;;;;18.82;49.03;100747.59;5063259;28;20032;-67
2022/11/07 02:44:19;;;;;;;3.60;1.20;;;;;;;18.78;49.23;100734.78;5063160;28;20555;-68
2022/11/07 02:46:45;;;;;;;3.15;1.20;;;;;;;18.81;49.01;100743.25;5062422;28;20036;-66
2022/11/07 02:49:10;;;;;;;4.75;1.40;;;;;;;18.78;49.30;100740.88;5063104;28;20032;-67
2022/11/07 02:51:35;;;;;;;3.00;1.05;;;;;;;18.81;49.22;100745.06;5063307;28;20185;-66
2022/11/07 02:54:01;;;;;;;3.87;1.20;;;;;;;18.80;49.12;100748.66;5062859;28;20070;-65
2022/11/07 02:56:26;;;;;;;2.87;1.07;;;;;;;18.79;49.12;100750.47;5063032;28;20697;-66
2022/11/07 02:58:51;;;;;;;4.75;1.27;;;;;;;18.78;49.24;100745.34;5063011;28;20265;-67
2022/11/07 03:01:17;;;;;;;3.05;1.20;;;;;;;18.78;49.23;100740.88;5063008;28;20044;-67
2022/11/07 03:03:45;;;;;;;3.90;1.20;;;;;;;18.79;49.06;100741.72;5062504;28;20424;-66
2022/11/07 03:06:13;;;;;;;2.38;1.10;;;;;;;18.75;49.24;100735.84;5063006;28;20798;-67
2022/11/07 03:08:39;;;;;;;4.07;1.52;;;;;;;18.74;49.05;100731.56;5063118;28;20056;-67
2022/11/07 03:11:05;;;;;;;5.38;1.30;;;;;;;18.71;49.00;100729.19;5062494;28;20473;-67
2022/11/07 03:13:30;;;;;;;3.13;1.30;;;;;;;18.74;49.12;100733.34;5062966;28;20040;-67
2022/11/07 03:15:57;;;;;;;3.70;1.30;;;;;;;18.73;48.86;100734.34;5062220;28;20024;-67
2022/11/07 03:18:22;;;;;;;3.40;1.10;;;;;;;18.75;49.22;100740.31;5062584;28;20906;-67
2022/11/07 03:20:48;;;;;;;3.03;1.27;;;;;;;18.72;49.19;100743.22;5062529;28;20483;-67
2022/11/07 03:23:13;;;;;;;3.72;1.05;;;;;;;18.73;49.28;100745.72;5062570;28;20071;-66
2022/11/07 03:25:40;;;;;;;3.10;1.15;;;;;;;18.71;49.03;100742.38;5044438;28;20050;-67
2022/11/07 03:28:05;;;;;;;4.03;1.25;;;;;;;18.75;49.23;100751.69;5061904;28;20443;-66
2022/11/07 03:30:31;;;;;;;3.08;1.23;;;;;;;18.74;49.17;100746.53;5062427;28;20029;-68
2022/11/07 03:32:56;;;;;;;4.30;1.23;;;;;;;18.74;49.12;100743.91;5062144;28;20066;-67
2022/11/07 03:35:22;;;;;;;3.30;1.10;;;;;;;18.74;49.16;100735.97;5062094;28;20028;-67
2022/11/07 03:37:48;;;;;;;4.20;1.30;;;;;;;18.70;49.01;100738.06;5062238;28;20037;-67
2022/11/07 03:40:15;;;;;;;5.28;1.52;;;;;;;18.70;49.30;100740.69;5062691;28;20090;-68
2022/11/07 03:42:42;;;;;;;3.95;1.08;;;;;;;18.69;49.16;100739.00;5062268;28;20060;-68
2022/11/07 03:45:09;;;;;;;3.83;1.20;;;;;;;18.70;49.16;100745.16;5061656;28;20039;-67
2022/11/07 03:47:35;;;;;;;3.50;1.35;;;;;;;18.72;49.17;100751.13;5062360;28;20040;-68
2022/11/07 03:50:00;;;;;;;4.50;1.25;;;;;;;18.72;49.25;100748.50;5043875;28;20039;-66
2022/11/07 03:52:26;;;;;;;3.95;1.17;;;;;;;18.71;49.28;100755.59;5062051;28;20918;-65
2022/11/07 03:54:51;;;;;;;3.97;1.33;;;;;;;18.71;49.17;100750.31;5061513;28;20048;-67
2022/11/07 03:57:16;;;;;;;4.70;1.27;;;;;;;18.65;49.38;100741.09;5061601;28;20845;-67
2022/11/07 03:59:41;;;;;;;2.23;1.10;;;;;;;18.67;49.35;100744.47;5060991;28;20040;-67
2022/11/07 04:02:06;;;;;;;4.43;1.40;;;;;;;18.67;49.10;100743.59;5061877;28;20273;-67
2022/11/07 04:04:32;;;;;;;3.73;1.20;;;;;;;18.66;48.99;100742.78;5061539;28;20474;-67
2022/11/07 04:06:57;;;;;;;3.17;1.10;;;;;;;18.70;49.38;100739.88;5061298;28;20445;-67
2022/11/07 04:09:22;;;;;;;3.90;1.10;;;;;;;18.68;49.37;100734.72;5061656;28;20043;-67
2022/11/07 04:17:19;;;;;;;4.43;1.40;;;;;;;18.66;49.18;100736.66;5060783;28;20268;-68
2022/11/07 04:19:48;;;;;;;3.80;1.23;;;;;;;18.65;49.24;100745.53;5061301;28;20546;-67
2022/11/07 04:22:14;;;;;;;4.45;1.40;;;;;;;18.64;49.36;100743.84;5061477;28;20028;-67
2022/11/07 04:24:43;;;;;;;3.70;1.25;;;;;;;18.63;49.45;100743.03;5051747;28;20038;-67
2022/11/07 04:29:54;;;;;;;4.38;1.38;;;;;;;18.65;49.23;100745.53;5061494;28;20039;-66
2022/11/07 04:32:21;;;;;;;3.75;1.10;;;;;;;18.64;49.19;100749.13;5061204;28;20737;-65
2022/11/07 04:34:47;;;;;;;4.18;1.25;;;;;;;18.59;49.43;100746.06;5061245;28;20062;-67
2022/11/07 04:37:12;;;;;;;3.75;1.23;;;;;;;18.65;49.33;100762.22;5061421;28;20376;-68
2022/11/07 04:39:37;;;;;;;5.10;1.20;;;;;;;18.60;49.35;100756.50;5061150;28;20033;-68
2022/11/07 04:42:03;;;;;;;3.70;1.35;;;;;;;18.64;49.37;100757.06;5060879;28;20039;-67
2022/11/07 04:44:28;;;;;;;4.80;1.42;;;;;;;18.65;49.54;100753.47;5060933;28;20185;-67
2022/11/07 04:46:53;;;;;;;3.40;1.25;;;;;;;18.62;49.45;100749.25;5061289;28;20513;-65
2022/11/07 04:49:18;;;;;;;3.00;1.13;;;;;;;18.62;49.69;100751.91;5060697;28;20044;-67
2022/11/07 04:51:44;;;;;;;2.75;1.10;;;;;;;18.62;49.32;100751.91;5061267;28;20257;-66
2022/11/07 04:54:14;;;;;;;5.87;1.43;;;;;;;18.66;49.38;100758.59;5060717;28;20060;-68
2022/11/07 04:56:40;;;;;;;2.70;1.05;;;;;;;18.62;49.63;100753.72;5060588;28;20261;-66
2022/11/07 04:59:06;;;;;;;3.35;1.33;;;;;;;18.61;49.25;100755.53;5060698;28;20045;-67
2022/11/07 05:01:32;;;;;;;3.60;1.33;;;;;;;18.66;49.21;100752.50;5060999;28;20048;-66
2022/11/07 05:03:57;;;;;;;3.17;1.40;;;;;;;18.66;49.43;100758.59;5061060;28;20035;-68
2022/11/07 05:06:23;;;;;;;2.30;0.88;;;;;;;18.66;49.17;100752.50;5060751;28;20025;-66
2022/11/07 05:08:48;;;;;;;4.45;1.30;;;;;;;18.65;49.33;100759.56;5061119;28;20036;-67
2022/11/07 05:11:14;;;;;;;4.15;1.30;;;;;;;18.62;49.30;100757.19;5064768;28;20036;-66
2022/11/07 05:13:39;;;;;;;4.43;1.30;;;;;;;18.64;49.23;100757.91;5065184;28;20088;-68
2022/11/07 05:16:10;;;;;;;4.38;1.27;;;;;;;18.62;49.14;100759.81;5064919;28;20040;-67
2022/11/07 05:18:35;;;;;;;3.20;1.23;;;;;;;18.65;49.17;100771.94;5065213;28;20024;-67
2022/11/07 05:21:00;;;;;;;4.37;1.37;;;;;;;18.63;49.13;100752.75;5064623;28;20025;-67
2022/11/07 05:23:27;;;;;;;3.07;1.10;;;;;;;18.65;49.32;100761.38;5064993;28;20339;-66
2022/11/07 05:25:53;;;;;;;4.30;1.20;;;;;;;18.61;49.01;100760.81;5064709;28;20267;-67
2022/11/07 05:28:24;;;;;;;5.15;1.33;;;;;;;18.63;49.03;100765.97;5064851;28;20033;-67
2022/11/07 05:30:50;;;;;;;3.50;1.40;;;;;;;18.61;49.25;100763.44;5064810;28;20046;-68
2022/11/07 05:33:16;;;;;;;3.88;1.40;;;;;;;18.60;49.23;100760.94;5064767;28;20040;-67
2022/11/07 05:35:43;;;;;;;3.65;1.20;;;;;;;18.64;49.30;100780.81;5064359;28;20047;-65
2022/11/07 05:38:09;;;;;;;3.92;1.33;;;;;;;18.59;49.18;100767.16;5064700;28;20028;-67
2022/11/07 05:40:35;;;;;;;3.58;1.30;;;;;;;18.59;49.09;100768.00;5064051;28;20093;-66
2022/11/07 05:43:03;;;;;;;4.22;1.20;;;;;;;18.58;49.16;100765.50;5064274;28;20064;-67
2022/11/07 05:45:29;;;;;;;4.05;1.33;;;;;;;18.59;49.21;100764.53;5064163;28;20028;-67
2022/11/07 05:48:02;;;;;;;4.55;1.67;;;;;;;18.58;49.37;100771.63;5064440;28;20032;-67
2022/11/07 05:50:29;;;;;;;4.68;1.20;;;;;;;18.60;49.50;100772.31;5064582;28;20028;-67
2022/11/07 05:52:54;;;;;;;5.40;1.42;;;;;;;18.61;49.15;100770.50;5064285;28;20035;-66
2022/11/07 05:55:21;;;;;;;4.70;1.30;;;;;;;18.62;49.45;100780.13;5064190;28;20040;-67
2022/11/07 05:57:46;;;;;;;4.35;1.15;;;;;;;18.61;49.40;100770.50;5064475;28;20042;-68
2022/11/07 06:00:13;;;;;;;4.07;1.30;;;;;;;18.62;49.23;100775.66;5063962;28;20036;-68
2022/11/07 06:02:38;;;;;;;4.05;1.40;;;;;;;18.49;49.26;100746.84;5064300;28;20039;-67
2022/11/07 06:05:04;;;;;;;3.47;1.13;;;;;;;18.62;49.47;100774.84;5063381;28;20040;-66
2022/11/07 06:07:33;;;;;;;4.88;1.30;;;;;;;18.64;49.19;100767.63;5063897;28;20040;-66
2022/11/07 06:09:58;;;;;;;4.38;1.33;;;;;;;18.62;49.39;100761.63;5063723;28;20476;-68
2022/11/07 06:12:23;;;;;;;4.50;1.40;;;;;;;18.63;49.50;100769.44;5063565;28;20032;-67
2022/11/07 06:14:49;;;;;;;3.53;1.30;;;;;;;18.62;49.28;100777.47;5064045;28;20334;-67
2022/11/07 06:17:14;;;;;;;4.17;1.23;;;;;;;18.63;49.33;100771.25;5063768;28;20301;-66
2022/11/07 06:19:39;;;;;;;3.30;1.20;;;;;;;18.64;49.09;100772.91;5063848;28;20261;-64
2022/11/07 06:22:04;;;;;;;5.23;1.23;;;;;;;18.63;49.51;100781.81;5062566;28;20265;-67
2022/11/07 06:24:30;;;;;;;5.78;1.30;;;;;;;18.65;49.71;100771.94;5063545;28;20281;-66
2022/11/07 06:26:55;;;;;;;3.30;1.10;;;;;;;18.64;49.65;100776.38;5063181;28;20167;-67
2022/11/07 06:29:20;;;;;;;4.00;1.40;;;;;;;18.67;49.58;100777.91;5063879;28;20087;-67
2022/11/07 06:31:45;;;;;;;4.37;1.33;;;;;;;18.73;49.60;100780.03;5063090;28;20261;-67
2022/11/07 06:34:11;;;;;;;4.20;1.23;;;;;;;18.77;49.58;100791.16;5063809;28;20269;-65
2022/11/07 06:36:36;;;;;;;4.10;1.67;;;;;;;18.74;49.29;100781.72;5063205;28;20029;-66
2022/11/07 06:39:01;;;;;;;3.97;1.33;;;;;;;18.79;49.54;100787.44;5063211;28;20283;-66
2022/11/07 06:41:26;;;;;;;3.63;1.30;;;;;;;18.84;49.16;100789.72;5063144;28;20308;-68
2022/11/07 06:43:52;;;;;;;3.23;1.13;;;;;;;18.85;49.12;100788.78;5063604;28;20039;-66
2022/11/07 06:46:22;;;;;;;3.78;1.10;;;;;;;18.88;48.96;100788.47;5062897;28;20260;-68
2022/11/07 06:48:47;;;;;;;4.80;1.30;;;;;;;18.94;49.10;100798.53;5063303;28;20047;-67
2022/11/07 06:51:13;;;;;;;4.53;1.30;;;;;;;18.98;49.16;100804.41;5045212;28;20029;-66
2022/11/07 06:53:38;;;;;;;3.33;1.10;;;;;;;18.97;49.08;100805.34;5044686;28;20507;-67
2022/11/07 06:56:06;;;;;;;3.58;1.10;;;;;;;19.05;49.17;100810.00;5062788;28;20091;-67
2022/11/07 06:58:31;;;;;;;4.57;1.27;;;;;;;19.02;48.81;100806.63;5063199;28;20492;-68
2022/11/07 07:01:05;;;;;;;3.65;1.33;;;;;;;19.09;48.89;100814.88;5045089;28;20043;-67
2022/11/07 07:03:30;;;;;;;3.15;1.00;;;;;;;19.11;49.13;100818.22;5063029;28;20035;-67
2022/11/07 07:06:01;;;;;;;3.47;1.10;;;;;;;19.12;49.13;100813.75;5062879;28;20032;-68
2022/11/07 07:08:26;;;;;;;4.30;1.40;;;;;;;19.09;49.04;100809.59;5062572;28;20032;-68
2022/11/07 07:10:51;;;;;;;4.18;1.30;;;;;;;19.13;49.13;100816.28;5062670;28;20033;-65
2022/11/07 07:13:16;;;;;;;4.53;1.20;;;;;;;19.16;49.04;100820.47;5063063;28;20442;-66
2022/11/07 07:15:42;;;;;;;5.03;1.40;;;;;;;19.19;49.08;100825.50;5062138;28;20036;-65
2022/11/07 07:18:07;;;;;;;5.60;1.47;;;;;;;19.19;49.27;100825.50;5062775;28;20752;-66
2022/11/07 07:20:33;;;;;;;4.13;1.07;;;;;;;19.21;49.31;100828.81;5062490;28;20930;-66
2022/11/07 07:22:58;;;;;;;5.45;1.30;;;;;;;19.21;49.36;100832.28;5062400;28;20352;-65
2022/11/07 07:25:24;;;;;;;4.00;1.30;;;;;;;19.23;49.36;100833.97;5061985;28;20036;-66
2022/11/07 07:27:49;;;;;;;4.97;1.55;;;;;;;19.27;49.23;100838.03;5062643;28;20083;-66
2022/11/07 07:30:16;;;;;;;3.80;1.35;;;;;;;19.24;49.35;100831.22;5062635;28;20476;-65
2022/11/07 07:32:41;;;;;;;4.88;1.38;;;;;;;19.24;49.41;100828.56;5043599;28;20909;-65
2022/11/07 07:35:07;;;;;;;6.35;1.20;;;;;;;19.28;49.31;100844.97;5062614;28;20115;-66
2022/11/07 07:37:33;;;;;;;4.63;1.33;;;;;;;19.29;49.45;100836.91;5044179;28;20024;-66
2022/11/07 07:39:58;;;;;;;4.87;1.20;;;;;;;19.23;49.73;100837.44;5062279;28;20024;-66
2022/11/07 07:42:23;;;;;;;4.07;1.20;;;;;;;19.27;49.62;100848.63;5062142;28;20265;-65
2022/11/07 07:44:48;;;;;;;5.03;1.37;;;;;;;19.31;49.57;100852.66;5062530;28;20048;-68
2022/11/07 07:47:14;;;;;;;6.87;1.63;;;;;;;19.29;49.46;100846.66;5061835;28;20269;-64
2022/11/07 07:49:39;;;;;;;7.90;1.40;;;;;;;19.30;49.58;100851.00;5062099;28;20733;-66
2022/11/07 07:52:05;;;;;;;7.15;1.38;;;;;;;19.33;49.69;100856.84;5062035;28;20658;-65
2022/11/07 07:54:30;;;;;;;4.15;1.10;;;;;;;19.30;49.35;100854.47;5062039;28;20052;-66
2022/11/07 07:56:55;;;;;;;5.95;1.50;;;;;;;19.32;49.58;100860.44;5062637;28;20090;-67
2022/11/07 07:59:21;;;;;;;5.00;1.30;;;;;;;19.36;49.86;100874.25;5061583;28;20036;-65
2022/11/07 08:01:46;;;;;;;4.43;1.20;;;;;;;19.37;49.66;100873.25;5061759;28;20086;-67
2022/11/07 08:04:11;;;;;;;5.97;1.77;;;;;;;19.34;49.58;100866.44;5061480;28;20079;-65
2022/11/07 08:06:36;;;;;;;6.07;1.27;;;;;;;19.36;49.65;100861.03;5061764;28;20032;-67
2022/11/07 08:09:03;;;;;;;4.03;1.13;;;;;;;19.38;49.67;100864.38;5061466;28;20687;-66
2022/11/07 08:11:28;;;;;;;5.65;1.25;;;;;;;19.39;49.66;100868.66;5062067;28;20269;-67
2022/11/07 08:13:53;;;;;;;3.15;1.20;;;;;;;19.40;49.71;100865.06;5061838;28;20044;-68
2022/11/07 08:16:19;;;;;;;3.57;1.20;;;;;;;19.41;49.59;100856.19;5061641;28;20033;-67
2022/11/07 08:18:44;;;;;;;5.83;1.43;;;;;;;19.42;49.86;100859.66;5043641;28;20349;-66
2022/11/07 08:21:09;;;;;;;5.22;1.27;;;;;;;19.43;49.99;100864.81;5061682;28;20338;-65
2022/11/07 08:23:35;;;;;;;4.65;1.15;;;;;;;19.43;50.18;100867.44;5061780;28;20036;-69
2022/11/07 08:26:03;;;;;;;5.68;1.30;;;;;;;19.45;50.11;100875.25;5061254;28;20475;-68
2022/11/07 08:28:31;;;;;;;4.05;1.30;;;;;;;19.44;50.00;100873.56;5061568;28;20040;-67
2022/11/07 08:31:00;;;;;;;3.58;1.40;;;;;;;19.48;50.09;100883.75;5061498;28;20048;-67
2022/11/07 08:33:26;;;;;;;4.88;1.40;;;;;;;19.46;50.29;100877.75;5061164;28;20089;-66
2022/11/07 08:35:56;;;;;;;5.40;1.38;;;;;;;19.49;50.35;100880.13;5061414;28;20488;-67
2022/11/07 08:38:22;;;;;;;5.20;1.38;;;;;;;19.49;50.32;100889.88;5059401;28;21032;-73
2022/11/07 08:40:49;;;;;;;4.40;1.30;;;;;;;19.47;50.44;100886.50;5060543;28;20025;-74
2022/11/07 08:43:16;;;;;;;4.55;1.17;;;;;;;19.45;50.32;100880.53;5060442;28;20075;-76
2022/11/07 08:45:42;;;;;;;3.70;1.17;;;;;;;19.46;50.14;100888.34;5059991;28;20535;-72
2022/11/07 08:48:07;;;;;;;5.60;1.30;;;;;;;19.47;49.99;100884.72;5060826;28;20029;-72
2022/11/07 08:50:32;;;;;;;5.03;1.30;;;;;;;19.52;50.27;100884.34;5060619;28;20063;-73
2022/11/07 08:52:58;;;;;;;4.18;1.27;;;;;;;19.60;49.80;100899.50;5060543;28;20617;-74
2022/11/07 08:55:25;;;;;;;7.20;1.45;;;;;;;19.62;50.09;100901.06;5059888;28;20179;-72
2022/11/07 08:57:50;;;;;;;4.70;1.40;;;;;;;19.65;49.84;100903.44;5060760;28;20131;-73
2022/11/07 09:00:15;;;;;;;5.13;1.20;;;;;;;19.69;49.94;100909.28;5059630;28;20033;-70
2022/11/07 09:02:41;;;;;;;5.75;1.45;;;;;;;19.72;49.58;100912.50;5060092;28;20028;-72
2022/11/07 09:05:07;;;;;;;5.40;1.50;;;;;;;19.72;49.39;100911.66;5059891;28;20024;-71
2022/11/07 09:07:32;;;;;;;5.35;1.65;;;;;;;19.78;49.74;100920.91;5060971;28;20075;-72
2022/11/07 09:09:58;;;;;;;4.63;1.10;;;;;;;19.75;49.60;100912.22;5060104;28;20451;-69
2022/11/07 09:12:24;;;;;;;5.30;1.27;;;;;;;19.80;49.74;100934.84;5060624;28;20082;-71
2022/11/07 09:14:49;;;;;;;5.38;1.30;;;;;;;19.78;50.07;100918.28;5059858;28;20066;-71
2022/11/07 09:17:16;;;;;;;3.15;1.10;;;;;;;19.86;49.73;100924.56;5059991;28;20041;-69
2022/11/07 09:19:41;;;;;;;5.60;1.17;;;;;;;19.88;49.79;100919.13;5059964;28;20400;-72
2022/11/07 09:22:07;;;;;;;5.70;1.30;;;;;;;19.89;49.64;100928.75;5060056;28;20036;-68
2022/11/07 09:24:32;;;;;;;6.13;1.30;;;;;;;19.88;49.62;100941.13;5059121;28;20845;-69
2022/11/07 09:26:57;;;;;;;4.45;1.20;;;;;;;19.91;49.91;100934.72;5060375;28;20340;-70
2022/11/07 09:29:22;;;;;;;4.97;1.77;;;;;;;19.90;49.67;100940.97;5060357;28;20033;-70
2022/11/07 09:31:48;;;;;;;5.83;1.40;;;;;;;19.86;49.95;100940.41;5059373;28;20257;-74
2022/11/07 09:34:13;;;;;;;3.40;0.90;;;;;;;19.89;49.87;100936.69;5060038;28;20790;-74
2022/11/07 09:36:38;;;;;;;5.40;1.52;;;;;;;19.90;49.81;100935.69;5041580;28;20301;-75
2022/11/07 09:39:03;;;;;;;7.47;1.23;;;;;;;19.88;49.85;100938.47;5059914;28;20033;-72
2022/11/07 09:41:46;;;;;;;6.23;1.20;;;;;;;19.91;49.80;100940.03;5059956;28;20816;-74
2022/11/07 09:44:28;;;;;;;5.53;1.27;;;;;;;19.92;49.67;100941.72;5059795;28;20324;-72
2022/11/07 09:47:04;;;;;;;6.07;1.50;;;;;;;19.91;49.79;100938.19;5059751;28;20028;-75
2022/11/07 09:49:38;;;;;;;6.00;1.38;;;;;;;19.93;49.49;100938.94;5059582;28;20043;-75
2022/11/07 09:52:23;;;;;;;5.65;1.23;;;;;;;19.94;49.58;100931.81;5059972;28;20102;-74
2022/11/07 09:54:57;;;;;;;5.72;1.88;;;;;;;19.97;50.00;100949.25;5059452;28;20049;-75
2022/11/07 09:57:23;;;;;;;4.57;1.77;;;;;;;19.89;49.79;100926.09;5062341;28;20491;-74
2022/11/07 09:59:59;;;;;;;5.72;1.30;;;;;;;19.92;49.60;100939.88;5064049;28;20039;-73
2022/11/07 10:02:29;;;;;;;3.28;1.10;;;;;;;19.96;49.94;100937.81;5063986;28;20028;-73
2022/11/07 10:05:01;;;;;;;4.30;1.98;;;;;;;19.97;49.55;100944.78;5062912;28;20494;-71
2022/11/07 10:07:49;;;;;;;4.95;1.30;;;;;;;19.98;49.54;100945.59;5063396;28;20027;-70
2022/11/07 10:10:37;;;;;;;3.90;1.10;;;;;;;19.98;49.56;100945.59;5063136;28;20032;-74
2022/11/07 10:13:20;;;;;;;5.82;1.27;;;;;;;19.98;49.73;100956.19;5063248;28;20083;-74
2022/11/07 10:16:02;;;;;;;6.45;1.40;;;;;;;19.91;49.84;100947.97;5062991;28;20545;-69
2022/11/07 10:19:21;;;;;;;4.90;1.13;;;;;;;19.92;49.87;100957.56;5063299;28;20032;-73
2022/11/07 10:21:56;;;;;;;4.55;1.25;;;;;;;19.88;49.90;100945.56;4962001;28;20038;-73
2022/11/07 10:24:52;;;;;;;5.28;1.63;;;;;;;19.92;49.83;100954.94;4929949;28;20045;-73
2022/11/07 10:27:21;;;;;;;4.78;1.23;;;;;;;19.90;49.84;100951.56;5045638;28;20040;-72
2022/11/07 10:29:52;;;;;;;6.95;1.30;;;;;;;19.91;49.84;100956.72;5063211;28;20115;-70
2022/11/07 10:32:17;;;;;;;4.65;1.27;;;;;;;19.94;50.06;100956.44;5062687;28;20037;-71
2022/11/07 10:34:49;;;;;;;5.37;1.47;;;;;;;19.93;49.91;100968.03;5062944;28;20040;-73
2022/11/07 10:37:14;;;;;;;5.32;1.38;;;;;;;19.94;49.90;100967.03;5062875;28;20025;-72
2022/11/07 10:39:39;;;;;;;4.73;1.30;;;;;;;19.96;49.81;100966.91;5062225;28;20083;-72
2022/11/07 10:42:09;;;;;;;5.33;1.23;;;;;;;19.97;49.77;100970.41;5063120;28;20078;-71
2022/11/07 10:44:37;;;;;;;5.35;1.50;;;;;;;19.93;50.00;100977.75;5062576;28;20285;-67
2022/11/07 10:47:14;;;;;;;9.10;1.77;;;;;;;19.94;49.89;100972.31;5062511;28;20040;-70
2022/11/07 10:49:39;;;;;;;5.43;1.40;;;;;;;19.96;49.80;100974.84;5062138;28;20036;-74
2022/11/07 10:52:16;;;;;;;9.93;1.70;;;;;;;19.88;50.21;100956.97;5044713;28;20093;-77
2022/11/07 10:54:43;;;;;;;7.28;1.60;;;;;;;20.03;49.87;100978.63;5062182;28;20136;-73
2022/11/07 10:57:08;;;;;;;5.63;1.50;;;;;;;20.05;49.84;100986.44;5062347;28;20028;-73
2022/11/07 10:59:38;;;;;;;7.67;1.37;;;;;;;20.02;49.87;100976.94;5062344;28;20033;-74
2022/11/07 11:02:16;;;;;;;6.10;1.67;;;;;;;20.01;49.67;100985.88;5062927;28;20028;-72
2022/11/07 11:04:47;;;;;;;8.45;1.30;;;;;;;19.98;49.72;100986.16;5062174;28;20386;-73
2022/11/07 11:07:13;;;;;;;7.45;1.70;;;;;;;19.92;49.93;100971.63;5062179;28;20119;-73
2022/11/07 11:09:50;;;;;;;5.83;1.20;;;;;;;20.02;50.07;100976.94;5062615;28;20162;-74
2022/11/07 11:12:19;;;;;;;5.32;1.30;;;;;;;20.06;49.84;100985.44;5062702;28;20353;-71
2022/11/07 11:14:44;;;;;;;5.80;1.63;;;;;;;20.04;49.80;100974.16;5062767;28;20029;-73
2022/11/07 11:17:24;;;;;;;7.05;1.38;;;;;;;20.07;49.89;100979.19;5062616;28;20097;-72
2022/11/07 11:19:52;;;;;;;5.35;1.48;;;;;;;20.06;49.69;100969.56;5061978;28;20048;-73
2022/11/07 11:22:20;;;;;;;8.07;1.80;;;;;;;20.07;49.96;100968.63;5061101;28;21124;-70
2022/11/07 11:24:56;;;;;;;5.40;1.10;;;;;;;20.03;49.99;100967.22;5060585;28;20644;-68
2022/11/07 11:27:24;;;;;;;6.18;1.70;;;;;;;19.97;50.10;100957.19;5061923;28;20032;-67
2022/11/07 11:30:06;;;;;;;6.75;1.50;;;;;;;19.97;50.24;100959.81;5062441;28;20218;-69
2022/11/07 11:32:42;;;;;;;8.70;1.75;;;;;;;19.97;50.30;100965.94;5062397;28;20032;-65
2022/11/07 11:35:37;;;;;;;5.53;1.50;;;;;;;19.96;50.11;100966.91;5062258;28;20476;-68
2022/11/07 11:38:21;;;;;;;5.10;1.38;;;;;;;19.90;50.39;100954.22;5045573;28;20037;-68